Time;durP1;ratioP1;P1;durP2;ratioP2;P2;SDS_P1;SDS_P2;PMS_P1;PMS_P2;Temp;Humidity;BMP_temperature;BMP_pressure;BME280_temperature;BME280_humidity;BME280_pressure;Samples;Min_cycle;Max_cycle;Signal;HPM_P1;HPM_P2
2022/01/20 00:03:21;;;;;;;10.13;6.93;;;;;;;2.98;76.55;100510.41;4937397;28;20276;-89
2022/01/20 00:27:34;;;;;;;10.95;6.63;;;;;;;2.85;78.45;100487.25;4931263;28;20205;-89
2022/01/20 00:32:54;;;;;;;8.68;7.60;;;;;;;2.79;79.29;100483.91;4918156;29;20201;-88
2022/01/20 00:35:24;;;;;;;9.38;5.93;;;;;;;2.76;79.67;100484.81;4932204;28;20304;-89
2022/01/20 00:37:52;;;;;;;7.20;5.95;;;;;;;2.72;79.91;100496.13;4907158;28;20600;-87
2022/01/20 00:40:28;;;;;;;10.40;7.15;;;;;;;2.69;80.38;100501.38;4937720;28;20225;-88
2022/01/20 00:42:54;;;;;;;8.47;6.43;;;;;;;2.65;80.90;100492.78;4933085;28;20316;-88
2022/01/20 00:45:21;;;;;;;8.52;6.10;;;;;;;2.63;81.07;100504.06;4904103;29;20233;-88
2022/01/20 00:47:51;;;;;;;7.20;6.50;;;;;;;2.60;81.31;100499.78;4920022;29;20212;-88
2022/01/20 00:50:17;;;;;;;8.48;6.60;;;;;;;2.57;81.47;100505.03;4916725;28;20652;-89
2022/01/20 00:52:43;;;;;;;9.27;6.65;;;;;;;2.55;81.81;100505.94;4932568;28;20218;-88
2022/01/20 00:55:10;;;;;;;11.63;7.95;;;;;;;2.51;82.05;100489.59;4917231;28;20209;-89
2022/01/20 00:57:36;;;;;;;11.40;8.13;;;;;;;2.50;82.06;100495.63;4918968;29;20225;-90
2022/01/20 01:00:06;;;;;;;10.70;7.30;;;;;;;2.48;82.23;100509.50;4933936;28;20213;-88
2022/01/20 01:02:35;;;;;;;13.60;9.52;;;;;;;2.57;82.68;100517.16;4919150;28;20931;-89
2022/01/20 01:05:05;;;;;;;10.55;7.43;;;;;;;2.54;82.58;100514.59;4919376;29;20319;-89
2022/01/20 01:07:44;;;;;;;8.82;7.50;;;;;;;2.52;82.57;100524.16;4903852;29;20232;-89
2022/01/20 01:10:19;;;;;;;9.20;7.30;;;;;;;2.45;82.93;100513.00;4928201;29;20209;-89
2022/01/20 01:12:57;;;;;;;12.55;7.65;;;;;;;2.42;82.99;100521.69;4919923;28;20210;-89
2022/01/20 01:15:29;;;;;;;12.05;8.10;;;;;;;2.40;83.31;100528.66;4918224;29;20201;-89
2022/01/20 01:23:20;;;;;;;12.30;7.55;;;;;;;2.38;83.34;100524.38;4932966;28;20640;-89
2022/01/20 01:25:46;;;;;;;11.47;8.50;;;;;;;2.36;83.47;100524.38;4919191;28;20217;-87
2022/01/20 01:28:12;;;;;;;15.23;8.73;;;;;;;2.35;83.57;100525.28;4919670;28;20595;-89
2022/01/20 01:33:07;;;;;;;14.25;9.27;;;;;;;2.34;83.74;100518.34;4934915;28;20735;-88
2022/01/20 01:35:38;;;;;;;9.98;7.97;;;;;;;2.33;83.91;100518.41;4916428;28;20257;-88
2022/01/20 01:40:29;;;;;;;9.37;6.90;;;;;;;2.31;84.02;100510.63;4916918;29;20205;-89
2022/01/20 01:42:56;;;;;;;9.35;7.25;;;;;;;2.30;83.96;100501.16;4917323;29;20233;-87
2022/01/20 01:45:27;;;;;;;8.70;6.85;;;;;;;2.30;84.39;100498.56;4918187;29;20232;-89
2022/01/20 01:47:54;;;;;;;14.77;8.27;;;;;;;2.29;84.41;100502.00;4919303;28;20726;-88
2022/01/20 01:50:24;;;;;;;13.50;7.25;;;;;;;2.29;84.28;100502.00;4931996;28;20197;-88
2022/01/20 01:52:50;;;;;;;11.88;8.30;;;;;;;2.29;84.54;100504.59;4920371;28;20208;-89
2022/01/20 01:55:16;;;;;;;9.00;7.20;;;;;;;2.29;84.40;100504.59;4935277;28;20197;-88
2022/01/20 01:57:43;;;;;;;8.55;6.68;;;;;;;2.30;84.28;100514.09;4919394;29;20255;-91
2022/01/20 02:00:11;;;;;;;11.40;6.80;;;;;;;2.32;84.33;100520.13;4920273;28;20679;-88
2022/01/20 02:02:44;;;;;;;10.00;7.30;;;;;;;2.33;84.53;100526.16;4919564;29;20837;-89
2022/01/20 02:05:18;;;;;;;9.25;6.75;;;;;;;2.33;84.20;100521.84;4924152;28;20224;-88
2022/01/20 02:08:32;;;;;;;9.02;7.72;;;;;;;2.35;84.48;100526.97;4915751;28;20213;-88
2022/01/20 02:19:16;;;;;;;10.40;6.82;;;;;;;2.35;84.61;100504.53;4916407;28;20234;-89
2022/01/20 02:21:46;;;;;;;7.57;5.72;;;;;;;2.34;84.71;100510.56;4941770;28;20197;-89
2022/01/20 02:24:11;;;;;;;8.00;6.00;;;;;;;2.35;84.29;100507.13;4900839;29;21172;-89
2022/01/20 02:26:40;;;;;;;6.35;5.55;;;;;;;2.35;84.50;100504.53;4898185;29;20661;-89
2022/01/20 02:29:09;;;;;;;9.38;7.22;;;;;;;2.35;84.58;100498.47;4898651;29;20305;-87
2022/01/20 02:31:35;;;;;;;9.60;6.20;;;;;;;2.33;84.80;100490.72;4889602;29;20198;-88
2022/01/20 02:34:03;;;;;;;8.25;6.03;;;;;;;2.34;84.78;100504.53;4898012;29;20374;-90
2022/01/20 02:36:32;;;;;;;8.18;6.28;;;;;;;2.33;84.71;100493.31;4914926;29;20209;-89
2022/01/20 02:39:09;;;;;;;9.48;6.22;;;;;;;2.32;84.80;100489.03;4899191;29;20205;-89
2022/01/20 02:47:13;;;;;;;9.70;6.35;;;;;;;2.29;84.96;100481.28;4921850;29;20618;-88
2022/01/20 02:49:41;;;;;;;9.35;5.32;;;;;;;2.30;84.88;100484.75;4920154;29;20269;-89
2022/01/20 02:52:07;;;;;;;7.38;5.43;;;;;;;2.31;84.90;100476.06;4890038;29;20212;-88
2022/01/20 02:54:36;;;;;;;9.03;5.93;;;;;;;2.32;85.00;100464.81;4915321;29;20522;-88
2022/01/20 02:57:03;;;;;;;7.38;6.05;;;;;;;2.34;84.92;100483.81;4898664;29;20959;-88
2022/01/20 02:59:29;;;;;;;6.72;5.60;;;;;;;2.35;85.02;100478.59;4899070;29;20206;-89
2022/01/20 03:01:54;;;;;;;9.07;6.37;;;;;;;2.36;85.03;100475.13;4906172;29;20255;-88
2022/01/20 03:04:24;;;;;;;8.77;6.67;;;;;;;2.38;85.00;100481.16;4897430;29;20378;-88
2022/01/20 03:06:52;;;;;;;9.30;6.07;;;;;;;2.39;84.62;100480.25;4898950;29;20204;-88
2022/01/20 03:09:19;;;;;;;10.10;5.67;;;;;;;2.41;84.70;100486.28;4906963;29;20198;-88
2022/01/20 03:11:48;;;;;;;9.00;5.85;;;;;;;2.41;84.62;100483.69;4933026;29;20549;-88
2022/01/20 03:14:17;;;;;;;8.85;6.22;;;;;;;2.43;84.87;100486.22;4930651;29;20198;-88
2022/01/20 03:16:48;;;;;;;8.10;5.20;;;;;;;2.43;85.05;100483.63;4935306;29;20724;-89
2022/01/20 03:19:15;;;;;;;7.32;5.40;;;;;;;2.43;84.55;100481.03;4909038;29;20209;-88
2022/01/20 03:21:43;;;;;;;9.13;5.53;;;;;;;2.45;84.74;100479.28;4908901;29;20551;-89
2022/01/20 03:24:12;;;;;;;6.65;5.25;;;;;;;2.46;84.76;100477.53;4918211;28;20734;-88
2022/01/20 03:26:40;;;;;;;7.53;5.40;;;;;;;2.46;84.46;100485.31;4934103;29;20886;-88
2022/01/20 03:29:10;;;;;;;10.60;7.38;;;;;;;2.44;84.77;100487.97;4936599;28;20220;-88
2022/01/20 03:31:37;;;;;;;9.60;6.38;;;;;;;2.44;84.79;100488.81;4918516;29;20204;-89
2022/01/20 03:34:03;;;;;;;7.93;5.45;;;;;;;2.44;84.46;100483.63;4932118;28;20205;-87
2022/01/20 03:36:31;;;;;;;10.15;6.68;;;;;;;2.44;84.67;100487.97;4939968;28;20205;-89
2022/01/20 03:39:06;;;;;;;8.30;5.53;;;;;;;2.43;84.77;100487.13;4916754;28;20216;-87
2022/01/20 03:41:32;;;;;;;7.07;5.22;;;;;;;2.42;84.59;100480.19;4932125;29;20205;-87
2022/01/20 03:44:04;;;;;;;8.65;5.45;;;;;;;2.43;84.66;100491.41;4919447;28;20460;-88
2022/01/20 03:46:30;;;;;;;6.90;5.05;;;;;;;2.42;84.76;100500.09;4919175;28;20619;-87
2022/01/20 03:49:06;;;;;;;7.47;5.60;;;;;;;2.42;84.73;100503.53;4913223;28;20209;-87
2022/01/20 03:51:32;;;;;;;10.52;6.25;;;;;;;2.42;84.69;100493.16;4916097;28;20457;-88
2022/01/20 03:53:58;;;;;;;7.63;5.43;;;;;;;2.41;84.94;100483.69;4909142;29;20481;-87
2022/01/20 03:56:49;;;;;;;5.65;5.15;;;;;;;2.41;84.86;100483.69;4906200;29;20205;-87
2022/01/20 03:59:33;;;;;;;8.98;5.35;;;;;;;2.41;84.80;100486.28;4931571;28;20220;-88
2022/01/20 04:01:59;;;;;;;9.73;5.83;;;;;;;2.40;84.70;100484.56;4920297;29;20209;-88
2022/01/20 04:04:48;;;;;;;9.15;6.53;;;;;;;2.40;84.79;100478.50;4914207;28;20604;-87
2022/01/20 04:07:19;;;;;;;7.18;5.68;;;;;;;2.41;84.69;100477.66;4913456;29;20198;-87
2022/01/20 04:09:44;;;;;;;8.10;6.13;;;;;;;2.40;84.62;100474.19;4909682;29;20232;-88
2022/01/20 04:12:10;;;;;;;6.63;5.23;;;;;;;2.39;85.01;100485.44;4912444;29;20612;-87
2022/01/20 04:14:46;;;;;;;7.85;5.72;;;;;;;2.41;84.71;100472.47;4912359;29;20201;-88
2022/01/20 04:17:16;;;;;;;7.93;5.80;;;;;;;2.41;84.89;100481.09;4928319;28;20205;-88
2022/01/20 04:19:44;;;;;;;6.75;5.53;;;;;;;2.43;84.84;100474.16;4934293;28;20257;-88
2022/01/20 04:22:10;;;;;;;7.88;6.20;;;;;;;2.43;84.81;100483.63;4914962;29;20235;-88
2022/01/20 04:24:37;;;;;;;6.77;5.90;;;;;;;2.44;84.58;100477.59;4920162;29;20226;-87
2022/01/20 04:27:03;;;;;;;6.63;5.90;;;;;;;2.44;84.88;100483.63;4894703;29;20209;-87
2022/01/20 04:29:31;;;;;;;5.95;4.80;;;;;;;2.46;84.57;100481.03;4926976;28;20201;-88
2022/01/20 04:31:57;;;;;;;8.52;6.05;;;;;;;2.47;84.64;100487.06;4920276;28;20202;-88
2022/01/20 04:34:23;;;;;;;9.23;6.80;;;;;;;2.48;84.33;100497.38;4912107;28;20212;-87
2022/01/20 04:36:55;;;;;;;7.70;4.70;;;;;;;2.48;84.61;100488.75;4937316;28;20197;-87
2022/01/20 04:39:24;;;;;;;6.20;4.95;;;;;;;2.48;84.24;100499.13;4918439;28;20594;-88
2022/01/20 04:41:53;;;;;;;8.50;6.60;;;;;;;2.50;84.52;100512.94;4916805;29;20231;-87
2022/01/20 04:44:57;;;;;;;10.52;6.50;;;;;;;2.51;84.55;100509.44;4911607;28;20221;-88
2022/01/20 04:57:53;;;;;;;8.55;6.07;;;;;;;2.50;84.03;100503.41;4925999;28;20208;-87
2022/01/20 05:00:19;;;;;;;13.80;6.73;;;;;;;2.52;84.59;100500.81;4925427;29;20210;-88
2022/01/20 05:03:11;;;;;;;7.82;5.20;;;;;;;2.53;84.21;100505.09;4915570;28;20548;-89
2022/01/20 05:05:37;;;;;;;10.13;6.57;;;;;;;2.52;84.66;100506.84;4912217;28;20320;-88
2022/01/20 05:08:17;;;;;;;7.70;5.75;;;;;;;2.52;84.21;100514.63;4903777;29;20878;-87
2022/01/20 05:10:43;;;;;;;7.35;5.85;;;;;;;2.52;84.39;100516.38;4930645;28;20213;-87
2022/01/20 05:13:22;;;;;;;8.83;6.40;;;;;;;2.53;84.27;100512.88;4914444;29;20201;-88
2022/01/20 05:15:47;;;;;;;8.75;6.18;;;;;;;2.53;84.25;100518.06;4914504;29;20212;-88
2022/01/20 05:18:13;;;;;;;9.57;7.13;;;;;;;2.54;84.25;100518.06;4905582;29;20200;-88
2022/01/20 05:20:38;;;;;;;9.93;6.30;;;;;;;2.55;84.19;100524.09;4929515;28;20299;-88
2022/01/20 05:23:04;;;;;;;7.83;5.50;;;;;;;2.56;84.04;100525.78;4931026;28;20439;-88
2022/01/20 05:25:30;;;;;;;7.10;4.90;;;;;;;2.57;84.43;100514.56;4891398;29;20255;-88
2022/01/20 05:27:55;;;;;;;7.33;5.27;;;;;;;2.57;84.15;100518.00;4900083;29;20481;-88
2022/01/20 05:30:21;;;;;;;7.27;5.70;;;;;;;2.59;84.22;100512.78;4898009;29;20214;-88
2022/01/20 05:33:05;;;;;;;7.90;6.35;;;;;;;2.72;84.08;100511.69;4913197;29;20536;-87
2022/01/20 05:35:31;;;;;;;9.80;6.32;;;;;;;2.71;83.99;100522.97;4894880;29;20205;-88
2022/01/20 05:37:58;;;;;;;6.80;5.38;;;;;;;2.69;83.65;100516.94;4894210;29;20220;-88
2022/01/20 05:40:24;;;;;;;10.27;5.75;;;;;;;2.69;83.80;100516.09;4910792;29;20780;-87
2022/01/20 05:42:50;;;;;;;8.38;6.22;;;;;;;2.68;83.91;100520.41;4898517;29;20993;-87
2022/01/20 05:45:16;;;;;;;6.43;4.17;;;;;;;2.67;83.73;100513.50;4896679;29;20226;-89
2022/01/20 05:47:47;;;;;;;6.15;4.70;;;;;;;2.65;83.35;100517.88;4896553;29;20213;-87
2022/01/20 05:50:22;;;;;;;10.20;5.97;;;;;;;2.65;83.42;100516.13;4912163;29;20210;-87
2022/01/20 05:52:48;;;;;;;7.07;5.45;;;;;;;2.64;83.41;100511.81;4894148;29;20202;-86
2022/01/20 05:55:16;;;;;;;7.50;4.93;;;;;;;2.63;83.68;100512.72;4911186;29;20230;-87
2022/01/20 05:57:46;;;;;;;8.63;6.22;;;;;;;2.62;83.48;100521.38;4890885;29;20205;-87
2022/01/20 06:00:24;;;;;;;8.38;5.15;;;;;;;2.62;83.71;100528.31;4893408;29;20205;-87
2022/01/20 06:05:41;;;;;;;5.35;4.10;;;;;;;2.62;83.73;100512.75;4906548;29;20506;-88
2022/01/20 06:08:09;;;;;;;7.20;5.13;;;;;;;2.60;83.27;100510.16;4892206;29;20254;-87
2022/01/20 06:10:35;;;;;;;8.27;5.63;;;;;;;2.60;nan;100498.94;4894680;29;20480;-87
2022/01/20 06:13:09;;;;;;;11.38;6.60;;;;;;;2.59;83.53;100492.91;4895966;29;20436;-87
2022/01/20 06:27:23;;;;;;;6.57;5.05;;;;;;;2.56;83.38;100486.91;4829366;29;20223;-94
2022/01/20 06:44:11;;;;;;;8.95;5.60;;;;;;;2.55;83.39;100513.72;4911250;29;20333;-74
2022/01/20 06:46:37;;;;;;;5.87;4.90;;;;;;;2.55;83.50;100516.31;4909347;29;20336;-74
2022/01/20 06:49:14;;;;;;;7.30;5.88;;;;;;;2.56;83.07;100530.97;4913766;29;20443;-74
2022/01/20 06:51:50;;;;;;;8.57;6.15;;;;;;;2.58;83.05;100534.41;4890692;29;20205;-72
2022/01/20 06:54:17;;;;;;;7.53;5.00;;;;;;;2.58;83.09;100531.81;4898289;29;20214;-75
2022/01/20 06:56:43;;;;;;;8.20;5.88;;;;;;;2.59;82.92;100544.78;4900514;29;20217;-75
2022/01/20 06:59:14;;;;;;;13.57;10.88;;;;;;;2.60;83.07;100545.63;4915484;29;20213;-73
2022/01/20 07:01:42;;;;;;;6.80;6.05;;;;;;;2.61;83.05;100542.16;4897940;29;20198;-73
2022/01/20 07:04:10;;;;;;;8.00;5.78;;;;;;;2.62;82.97;100544.72;4915747;29;20257;-74
2022/01/20 07:06:36;;;;;;;6.85;5.72;;;;;;;2.63;83.04;100550.75;4906415;29;20225;-74
2022/01/20 07:09:20;;;;;;;7.40;5.95;;;;;;;2.63;82.89;100553.34;4914019;29;20305;-74
2022/01/20 07:11:48;;;;;;;11.80;7.22;;;;;;;2.64;82.93;100544.69;4909075;29;20222;-74
2022/01/20 07:14:15;;;;;;;8.82;5.55;;;;;;;2.65;82.66;100539.47;4904231;29;20221;-73
2022/01/20 07:16:40;;;;;;;7.10;5.53;;;;;;;2.64;83.04;100536.91;4906898;29;20194;-72
2022/01/20 07:19:09;;;;;;;7.20;5.80;;;;;;;2.64;82.75;100549.88;4895238;29;20212;-72
2022/01/20 07:21:34;;;;;;;9.43;5.60;;;;;;;2.63;82.90;100546.44;4912475;29;20682;-72
2022/01/20 07:24:03;;;;;;;5.70;4.70;;;;;;;2.63;83.11;100554.22;4896663;29;20234;-75
2022/01/20 07:26:28;;;;;;;6.70;5.20;;;;;;;2.63;82.90;100558.53;4895833;29;20575;-76
2022/01/20 07:29:04;;;;;;;7.60;6.55;;;;;;;2.64;83.06;100563.69;4919292;29;20296;-75
2022/01/20 07:31:30;;;;;;;6.45;5.60;;;;;;;2.65;82.99;100574.94;4908095;29;21219;-76
2022/01/20 07:33:56;;;;;;;11.10;6.45;;;;;;;2.65;82.83;100574.94;4915228;29;20228;-75
2022/01/20 07:36:21;;;;;;;9.50;6.20;;;;;;;2.67;82.60;100588.72;4902586;29;20221;-76
2022/01/20 07:38:47;;;;;;;7.80;5.63;;;;;;;2.65;82.41;100591.38;4916816;29;20216;-76
2022/01/20 07:41:12;;;;;;;8.67;6.53;;;;;;;2.66;82.46;100593.06;4898723;29;20233;-77
2022/01/20 07:43:40;;;;;;;8.43;6.93;;;;;;;2.68;83.09;100595.66;4913817;29;20254;-76
2022/01/20 07:46:20;;;;;;;9.75;6.28;;;;;;;2.66;82.65;100576.66;4914430;29;20206;-75
2022/01/20 07:48:49;;;;;;;12.18;7.45;;;;;;;2.66;82.97;100571.47;4905857;29;21179;-79
2022/01/20 07:51:17;;;;;;;8.52;6.25;;;;;;;2.66;82.66;100584.44;4903563;29;20207;-76
2022/01/20 07:53:43;;;;;;;7.85;6.38;;;;;;;2.65;82.75;100580.13;4901844;29;20249;-75
2022/01/20 07:56:10;;;;;;;5.72;5.13;;;;;;;2.63;82.46;100587.94;4917945;29;20213;-75
2022/01/20 07:58:36;;;;;;;6.03;4.70;;;;;;;2.63;82.67;100606.09;4902603;29;20210;-75
2022/01/20 08:01:05;;;;;;;6.82;5.32;;;;;;;2.63;82.98;100605.22;4919737;29;20277;-75
2022/01/20 08:03:35;;;;;;;7.38;6.05;;;;;;;2.64;82.52;100620.75;4913392;29;20567;-76
2022/01/20 08:06:08;;;;;;;7.13;5.32;;;;;;;2.67;82.40;100625.03;4909346;29;20234;-77
2022/01/20 08:08:36;;;;;;;10.23;7.47;;;;;;;2.68;82.84;100634.56;4902495;29;20800;-79
2022/01/20 08:11:30;;;;;;;6.03;5.00;;;;;;;2.69;82.58;100636.25;4903054;29;20206;-75
2022/01/20 08:14:28;;;;;;;7.60;5.25;;;;;;;2.70;82.54;100643.19;4914264;29;20242;-76
2022/01/20 08:16:54;;;;;;;8.73;7.10;;;;;;;2.71;82.62;100644.03;4920872;29;20247;-75
2022/01/20 08:19:21;;;;;;;6.30;4.43;;;;;;;2.73;82.37;100643.13;4917754;29;20249;-75
2022/01/20 08:21:46;;;;;;;7.00;5.72;;;;;;;2.75;82.45;100651.72;4919429;29;20208;-75
2022/01/20 08:24:12;;;;;;;7.20;5.40;;;;;;;2.76;82.30;100648.28;4915727;29;20237;-78
2022/01/20 08:26:37;;;;;;;5.57;4.90;;;;;;;2.77;82.37;100657.75;4905097;29;20337;-79
2022/01/20 08:29:03;;;;;;;7.13;5.30;;;;;;;2.78;82.57;100654.31;4905668;29;20214;-75
2022/01/20 08:31:29;;;;;;;7.80;6.50;;;;;;;2.79;82.58;100662.94;4906111;29;20582;-75
2022/01/20 08:33:58;;;;;;;5.32;4.85;;;;;;;2.81;82.34;100664.63;4907128;29;20896;-76
2022/01/20 08:36:32;;;;;;;5.57;4.32;;;;;;;2.83;82.29;100655.06;4904967;29;20201;-75
2022/01/20 08:38:57;;;;;;;5.50;4.83;;;;;;;2.87;82.19;100658.50;4911788;29;20829;-75
2022/01/20 08:41:23;;;;;;;7.23;5.10;;;;;;;2.87;82.32;100655.91;4913477;29;21170;-75
2022/01/20 08:43:49;;;;;;;5.57;4.50;;;;;;;2.92;82.22;100671.38;4926589;29;20269;-75
2022/01/20 08:46:19;;;;;;;4.90;4.32;;;;;;;2.92;81.74;100663.59;4928867;29;22386;-75
2022/01/20 08:48:45;;;;;;;7.00;5.00;;;;;;;2.92;81.87;100666.19;4928073;29;20210;-75
2022/01/20 08:51:29;;;;;;;5.28;4.60;;;;;;;2.90;81.96;100663.63;4921329;29;20309;-78
2022/01/20 08:54:07;;;;;;;6.05;5.35;;;;;;;2.93;82.09;100670.50;4913800;29;20323;-76
2022/01/20 08:56:34;;;;;;;6.32;5.72;;;;;;;2.94;82.17;100674.81;4911827;29;20202;-75
2022/01/20 08:59:07;;;;;;;5.28;4.78;;;;;;;2.92;81.86;100684.34;4911633;29;20234;-78
2022/01/20 09:01:33;;;;;;;7.30;5.32;;;;;;;2.92;82.10;100677.44;4922305;29;20698;-75
2022/01/20 09:03:59;;;;;;;5.53;4.95;;;;;;;2.95;82.08;100680.00;4920187;29;20328;-76
2022/01/20 09:06:24;;;;;;;8.23;5.70;;;;;;;3.08;81.82;100676.34;4919276;29;20373;-75
2022/01/20 09:08:56;;;;;;;9.57;6.32;;;;;;;3.31;81.43;100683.72;4910702;29;20301;-77
2022/01/20 09:11:24;;;;;;;10.00;7.77;;;;;;;3.53;80.74;100688.56;4920213;29;20297;-75
2022/01/20 09:16:43;;;;;;;14.63;13.15;;;;;;;3.75;79.26;100678.63;4921390;29;20294;-79
2022/01/20 09:19:21;;;;;;;19.48;17.40;;;;;;;3.73;79.22;100678.69;4921362;29;20209;-75
2022/01/20 09:21:56;;;;;;;20.33;17.40;;;;;;;3.69;79.22;100692.59;4903542;29;20288;-76
2022/01/20 09:24:22;;;;;;;17.85;15.88;;;;;;;3.68;79.11;100698.69;4912598;29;20323;-75
2022/01/20 09:26:47;;;;;;;14.90;12.03;;;;;;;4.35;78.47;100703.50;4903883;29;20611;-75
2022/01/20 09:29:14;;;;;;;9.82;8.95;;;;;;;5.19;76.01;100687.75;4904983;29;20198;-76
2022/01/20 09:31:40;;;;;;;10.53;8.27;;;;;;;6.53;71.93;100687.63;4904661;29;20500;-75
2022/01/20 09:34:09;;;;;;;9.13;6.85;;;;;;;7.85;67.93;100693.84;4912314;29;21538;-75
2022/01/20 09:36:36;;;;;;;5.10;4.60;;;;;;;8.90;64.22;100685.63;4909128;29;20296;-75
2022/01/20 09:39:02;;;;;;;6.30;5.47;;;;;;;9.56;61.38;100681.16;4911963;29;20202;-75
2022/01/20 09:41:47;;;;;;;6.70;6.00;;;;;;;9.28;60.72;100668.34;4895423;29;20305;-74
2022/01/20 09:44:13;;;;;;;7.90;5.38;;;;;;;8.82;61.84;100672.81;4908432;29;20236;-75
2022/01/20 09:46:41;;;;;;;6.38;5.43;;;;;;;8.30;63.41;100680.03;4907851;29;20217;-75
2022/01/20 09:49:14;;;;;;;6.40;5.20;;;;;;;7.72;64.67;100689.06;4893929;29;20210;-75
2022/01/20 09:51:42;;;;;;;6.32;5.60;;;;;;;7.17;66.35;100695.25;4905684;29;20202;-75
2022/01/20 09:54:13;;;;;;;5.60;5.00;;;;;;;6.75;67.01;100699.16;4918635;29;20242;-74
2022/01/20 09:56:44;;;;;;;10.20;5.63;;;;;;;6.32;68.17;100709.97;4919201;29;20567;-75
2022/01/20 09:59:12;;;;;;;5.70;4.47;;;;;;;6.03;68.99;100713.44;4909832;29;20224;-76
2022/01/20 10:01:44;;;;;;;10.27;6.17;;;;;;;5.70;69.80;100718.63;4904449;29;20686;-77
2022/01/20 10:04:37;;;;;;;7.07;5.00;;;;;;;5.26;70.70;100717.94;4897048;29;20221;-75
2022/01/20 10:07:31;;;;;;;8.23;6.20;;;;;;;4.95;71.89;100731.69;4916500;29;20214;-75
2022/01/20 10:10:02;;;;;;;5.82;5.05;;;;;;;4.78;73.23;100725.97;4910432;29;20352;-75
2022/01/20 10:12:38;;;;;;;10.43;7.32;;;;;;;4.74;73.54;100726.94;4910725;29;20749;-75
2022/01/20 10:15:14;;;;;;;8.10;6.18;;;;;;;4.82;73.54;100720.69;4918709;29;20189;-75
2022/01/20 10:18:11;;;;;;;7.55;5.72;;;;;;;4.77;73.70;100714.72;4848060;29;20221;-76
2022/01/20 10:20:58;;;;;;;12.95;6.65;;;;;;;4.62;73.92;100715.94;4901644;29;20206;-77
2022/01/20 10:23:43;;;;;;;8.40;6.10;;;;;;;4.48;74.66;100709.28;4914692;29;20227;-77
2022/01/20 10:26:30;;;;;;;8.10;7.07;;;;;;;4.43;74.94;100722.41;4907864;29;20257;-75
2022/01/20 10:29:05;;;;;;;7.50;6.03;;;;;;;4.43;75.12;100709.41;4905987;29;20915;-75
2022/01/20 10:31:43;;;;;;;7.53;6.15;;;;;;;4.45;75.49;100705.00;4905831;29;20198;-77
2022/01/20 10:34:20;;;;;;;8.80;5.80;;;;;;;4.48;75.54;100702.31;4909556;29;20233;-75
2022/01/20 10:36:52;;;;;;;6.93;5.95;;;;;;;4.56;75.23;100704.78;4918504;29;20221;-78
2022/01/20 10:39:33;;;;;;;10.15;6.10;;;;;;;4.71;75.19;100695.78;4919935;29;20206;-78
2022/01/20 10:42:05;;;;;;;6.95;6.05;;;;;;;4.84;75.31;100692.03;4907388;29;20246;-76
2022/01/20 10:44:40;;;;;;;8.77;7.50;;;;;;;4.96;75.06;100683.06;4903528;29;20634;-75
2022/01/20 10:47:14;;;;;;;9.90;6.85;;;;;;;5.06;74.58;100672.41;4913477;29;20251;-75
2022/01/20 10:49:44;;;;;;;12.15;7.22;;;;;;;5.20;74.40;100673.81;4909264;29;20205;-75
2022/01/20 10:52:12;;;;;;;8.95;6.40;;;;;;;5.29;74.26;100673.59;4918270;29;20615;-75
2022/01/20 10:54:43;;;;;;;12.23;8.25;;;;;;;5.43;73.89;100674.13;4903182;29;20222;-75
2022/01/20 10:57:15;;;;;;;9.95;7.43;;;;;;;5.58;73.82;100666.78;4912458;29;20213;-78
2022/01/20 10:59:56;;;;;;;9.77;7.50;;;;;;;5.65;73.30;100657.91;4902910;29;20193;-76
2022/01/20 11:02:33;;;;;;;6.30;5.38;;;;;;;5.60;73.04;100646.75;4895946;29;20706;-75
2022/01/20 11:04:59;;;;;;;14.50;13.07;;;;;;;5.49;73.05;100654.84;4908154;29;20305;-79
2022/01/20 11:07:27;;;;;;;9.15;6.05;;;;;;;5.41;73.24;100654.19;4903557;29;20214;-78
2022/01/20 11:10:04;;;;;;;7.60;5.93;;;;;;;5.35;73.46;100657.81;4919585;29;20202;-76
2022/01/20 11:12:40;;;;;;;6.68;6.03;;;;;;;5.26;73.93;100653.66;4920025;29;20217;-75
2022/01/20 11:15:16;;;;;;;10.63;7.35;;;;;;;5.23;74.11;100658.13;4902679;29;20221;-79
2022/01/20 11:17:43;;;;;;;11.75;8.63;;;;;;;5.20;74.18;100661.66;4911021;29;20313;-76
2022/01/20 11:20:17;;;;;;;9.00;6.38;;;;;;;5.19;74.10;100659.09;4920136;28;20204;-77
2022/01/20 11:22:59;;;;;;;7.60;5.93;;;;;;;5.17;74.38;100666.94;4933963;29;20205;-79
2022/01/20 11:25:31;;;;;;;10.35;7.38;;;;;;;5.17;74.05;100660.88;4936747;28;20231;-75
2022/01/20 11:28:23;;;;;;;7.93;5.63;;;;;;;5.20;74.25;100650.38;4936476;28;20204;-75
2022/01/20 11:31:06;;;;;;;6.13;5.50;;;;;;;5.21;74.29;100645.16;4927574;28;20198;-75
2022/01/20 11:33:55;;;;;;;6.10;5.25;;;;;;;5.23;74.50;100653.75;4926896;28;20210;-76
2022/01/20 11:36:26;;;;;;;9.80;6.57;;;;;;;5.24;74.00;100645.06;4936565;28;20618;-77
2022/01/20 11:39:00;;;;;;;6.18;5.40;;;;;;;5.28;74.18;100643.22;4937642;28;20212;-76
2022/01/20 11:41:39;;;;;;;8.57;6.55;;;;;;;5.36;73.76;100633.47;4937628;28;20209;-77
2022/01/20 11:44:14;;;;;;;9.90;6.60;;;;;;;5.44;73.72;100625.47;4896254;29;20345;-76
2022/01/20 11:46:44;;;;;;;13.48;7.32;;;;;;;5.54;73.62;100630.38;4896438;29;20329;-78
2022/01/20 11:49:12;;;;;;;9.10;6.60;;;;;;;5.63;73.21;100623.22;4898944;29;20628;-75
2022/01/20 11:51:53;;;;;;;7.60;5.28;;;;;;;5.67;72.59;100622.22;4899257;29;20263;-78
2022/01/20 11:54:43;;;;;;;8.90;5.10;;;;;;;5.60;72.16;100618.94;4898883;29;20229;-75
2022/01/20 11:57:21;;;;;;;7.70;5.18;;;;;;;5.58;72.27;100619.88;4896794;29;20279;-77
2022/01/20 11:59:55;;;;;;;9.90;8.23;;;;;;;5.66;72.35;100615.31;4914207;29;20203;-75
2022/01/20 12:02:27;;;;;;;6.32;4.50;;;;;;;5.73;72.06;100620.31;4900856;29;20217;-76
2022/01/20 12:04:56;;;;;;;5.50;4.80;;;;;;;5.79;72.23;100616.69;4887608;29;20256;-74
2022/01/20 12:07:45;;;;;;;5.45;5.00;;;;;;;5.83;71.77;100607.00;4888046;29;20761;-75
2022/01/20 12:10:21;;;;;;;5.63;4.70;;;;;;;5.88;71.88;100610.34;4897907;29;20246;-75
2022/01/20 12:12:47;;;;;;;6.60;5.40;;;;;;;5.86;71.64;100601.72;4888423;29;20789;-78
2022/01/20 12:15:20;;;;;;;5.60;5.03;;;;;;;5.87;71.89;100588.63;4900405;29;20231;-79
2022/01/20 12:17:52;;;;;;;7.82;5.18;;;;;;;5.87;71.70;100588.63;4898641;29;20225;-79
2022/01/20 12:20:18;;;;;;;8.43;5.70;;;;;;;5.90;72.27;100585.94;4897664;29;20650;-78
2022/01/20 12:22:45;;;;;;;8.98;5.95;;;;;;;5.93;72.25;100583.28;4899903;29;20230;-76
2022/01/20 12:25:23;;;;;;;6.70;4.75;;;;;;;5.95;72.12;100586.69;4898284;29;20231;-75
2022/01/20 12:27:50;;;;;;;7.57;5.60;;;;;;;5.96;72.24;100584.94;4899706;29;20245;-77
2022/01/20 12:30:24;;;;;;;5.40;4.90;;;;;;;5.97;71.59;100582.31;4899338;29;20212;-76
2022/01/20 12:32:59;;;;;;;8.07;5.47;;;;;;;5.94;72.06;100571.09;4899115;29;20259;-75
2022/01/20 12:35:25;;;;;;;5.60;4.40;;;;;;;5.92;71.58;100572.88;4882630;29;20587;-74
2022/01/20 12:37:50;;;;;;;6.60;4.65;;;;;;;5.85;71.85;100574.78;4886652;29;20207;-75
2022/01/20 12:40:22;;;;;;;6.77;5.37;;;;;;;5.75;71.85;100571.59;4899350;29;20210;-75
2022/01/20 12:42:48;;;;;;;9.35;5.47;;;;;;;5.67;72.01;100572.69;4910774;29;20253;-79
2022/01/20 12:48:15;;;;;;;11.25;6.88;;;;;;;5.50;72.59;100573.16;4909399;29;20218;-75
2022/01/20 12:51:01;;;;;;;11.52;7.70;;;;;;;5.48;72.41;100568.00;4924281;29;20210;-74
2022/01/20 12:53:31;;;;;;;6.13;4.63;;;;;;;5.44;72.52;100575.94;4921999;29;20746;-76
2022/01/20 12:55:56;;;;;;;8.93;4.75;;;;;;;5.42;72.45;100582.94;4922477;29;20194;-75
2022/01/20 12:58:22;;;;;;;5.87;4.70;;;;;;;5.36;72.80;100583.13;4923498;29;20659;-74
2022/01/20 13:01:04;;;;;;;6.50;5.43;;;;;;;5.32;73.09;100578.00;4913245;29;20561;-76
2022/01/20 13:03:38;;;;;;;4.38;3.95;;;;;;;5.26;73.23;100572.06;4913100;29;20745;-74
2022/01/20 13:06:05;;;;;;;4.60;3.65;;;;;;;5.23;73.83;100578.22;4926708;29;20313;-76
2022/01/20 13:08:34;;;;;;;8.18;5.50;;;;;;;5.18;73.73;100584.44;4921615;29;20218;-75
2022/01/20 13:11:06;;;;;;;6.55;3.90;;;;;;;5.15;74.45;100595.78;4906304;29;20251;-78
2022/01/20 13:13:31;;;;;;;5.47;4.03;;;;;;;5.13;74.46;100588.91;4922001;29;20242;-75
2022/01/20 13:15:57;;;;;;;7.43;4.00;;;;;;;5.10;74.80;100582.03;4921275;29;20705;-75
2022/01/20 13:18:22;;;;;;;5.37;4.67;;;;;;;5.08;75.02;100591.66;4922971;29;20635;-75
2022/01/20 13:20:54;;;;;;;6.40;5.37;;;;;;;5.05;75.24;100589.97;4921562;29;20206;-76
2022/01/20 13:26:06;;;;;;;5.50;3.90;;;;;;;5.01;75.62;100590.94;4959581;28;20334;-78
2022/01/20 13:28:31;;;;;;;4.95;3.47;;;;;;;5.01;75.52;100595.28;4968787;28;20225;-78